sensor_id;sensor_type;location;lat;lon;timestamp;P1;durP1;ratioP1;P2;durP2;ratioP2
18574;SDS011;9417;16.484;102.872;2022-09-13T00:01:02;21.65;;;16.88;;
18574;SDS011;9417;16.484;102.872;2022-09-13T00:03:09;24.88;;;17.58;;
18574;SDS011;9417;16.484;102.872;2022-09-13T00:05:17;26.10;;;17.73;;
18574;SDS011;9417;16.484;102.872;2022-09-13T00:07:24;24.65;;;17.73;;
18574;SDS011;9417;16.484;102.872;2022-09-13T00:09:31;26.73;;;16.30;;
18574;SDS011;9417;16.484;102.872;2022-09-13T00:11:40;21.88;;;15.98;;
18574;SDS011;9417;16.484;102.872;2022-09-13T00:13:47;21.95;;;15.88;;
18574;SDS011;9417;16.484;102.872;2022-09-13T00:15:54;24.42;;;17.08;;
18574;SDS011;9417;16.484;102.872;2022-09-13T00:18:05;23.77;;;17.17;;
18574;SDS011;9417;16.484;102.872;2022-09-13T00:20:12;23.40;;;16.83;;
18574;SDS011;9417;16.484;102.872;2022-09-13T00:22:19;24.30;;;15.93;;
18574;SDS011;9417;16.484;102.872;2022-09-13T00:24:26;22.63;;;15.27;;
18574;SDS011;9417;16.484;102.872;2022-09-13T00:26:33;19.90;;;14.65;;
18574;SDS011;9417;16.484;102.872;2022-09-13T00:28:40;19.88;;;14.80;;
18574;SDS011;9417;16.484;102.872;2022-09-13T00:30:48;20.23;;;13.75;;
18574;SDS011;9417;16.484;102.872;2022-09-13T00:32:55;20.73;;;13.30;;
18574;SDS011;9417;16.484;102.872;2022-09-13T00:35:09;14.68;;;12.45;;
18574;SDS011;9417;16.484;102.872;2022-09-13T00:37:16;17.13;;;11.57;;
18574;SDS011;9417;16.484;102.872;2022-09-13T00:39:23;16.38;;;12.00;;
18574;SDS011;9417;16.484;102.872;2022-09-13T00:41:30;15.98;;;12.85;;
18574;SDS011;9417;16.484;102.872;2022-09-13T00:43:39;13.18;;;10.35;;
18574;SDS011;9417;16.484;102.872;2022-09-13T00:45:49;14.15;;;11.07;;
18574;SDS011;9417;16.484;102.872;2022-09-13T00:47:57;14.57;;;10.45;;
18574;SDS011;9417;16.484;102.872;2022-09-13T00:50:10;13.40;;;10.30;;
18574;SDS011;9417;16.484;102.872;2022-09-13T00:52:21;14.52;;;10.05;;
18574;SDS011;9417;16.484;102.872;2022-09-13T00:54:32;14.23;;;10.77;;
18574;SDS011;9417;16.484;102.872;2022-09-13T00:56:44;13.90;;;10.43;;
18574;SDS011;9417;16.484;102.872;2022-09-13T00:58:55;14.43;;;10.65;;
18574;SDS011;9417;16.484;102.872;2022-09-13T01:01:05;16.25;;;10.50;;
18574;SDS011;9417;16.484;102.872;2022-09-13T01:03:16;12.10;;;8.93;;
18574;SDS011;9417;16.484;102.872;2022-09-13T01:05:28;12.32;;;9.52;;
18574;SDS011;9417;16.484;102.872;2022-09-13T01:07:40;12.43;;;8.88;;
18574;SDS011;9417;16.484;102.872;2022-09-13T01:09:48;10.07;;;8.45;;
18574;SDS011;9417;16.484;102.872;2022-09-13T01:11:58;10.10;;;7.63;;
18574;SDS011;9417;16.484;102.872;2022-09-13T01:14:10;10.13;;;7.97;;
18574;SDS011;9417;16.484;102.872;2022-09-13T01:16:18;11.98;;;8.38;;
18574;SDS011;9417;16.484;102.872;2022-09-13T01:18:25;11.68;;;8.80;;
18574;SDS011;9417;16.484;102.872;2022-09-13T01:20:37;10.70;;;8.93;;
18574;SDS011;9417;16.484;102.872;2022-09-13T01:28:16;12.13;;;9.38;;
18574;SDS011;9417;16.484;102.872;2022-09-13T01:30:40;12.18;;;9.43;;
18574;SDS011;9417;16.484;102.872;2022-09-13T01:32:58;12.02;;;9.43;;
18574;SDS011;9417;16.484;102.872;2022-09-13T01:35:19;15.20;;;11.07;;
18574;SDS011;9417;16.484;102.872;2022-09-13T01:37:40;12.95;;;10.75;;
18574;SDS011;9417;16.484;102.872;2022-09-13T01:39:58;13.02;;;9.60;;
18574;SDS011;9417;16.484;102.872;2022-09-13T01:42:12;12.77;;;9.15;;
18574;SDS011;9417;16.484;102.872;2022-09-13T01:44:30;13.68;;;10.18;;
18574;SDS011;9417;16.484;102.872;2022-09-13T01:46:55;15.88;;;11.25;;
18574;SDS011;9417;16.484;102.872;2022-09-13T01:49:09;14.15;;;10.57;;
18574;SDS011;9417;16.484;102.872;2022-09-13T01:51:26;13.90;;;10.10;;
18574;SDS011;9417;16.484;102.872;2022-09-13T01:53:37;12.35;;;9.20;;
18574;SDS011;9417;16.484;102.872;2022-09-13T01:55:54;10.60;;;8.68;;
18574;SDS011;9417;16.484;102.872;2022-09-13T01:58:14;9.93;;;7.75;;
18574;SDS011;9417;16.484;102.872;2022-09-13T02:00:27;9.68;;;7.50;;
18574;SDS011;9417;16.484;102.872;2022-09-13T02:02:43;9.95;;;7.47;;
18574;SDS011;9417;16.484;102.872;2022-09-13T02:04:57;9.57;;;7.28;;
18574;SDS011;9417;16.484;102.872;2022-09-13T02:09:18;9.82;;;6.68;;
18574;SDS011;9417;16.484;102.872;2022-09-13T02:11:27;11.43;;;8.13;;
18574;SDS011;9417;16.484;102.872;2022-09-13T02:13:36;9.73;;;7.20;;
18574;SDS011;9417;16.484;102.872;2022-09-13T02:15:46;7.93;;;7.00;;
18574;SDS011;9417;16.484;102.872;2022-09-13T02:17:59;9.18;;;7.35;;
18574;SDS011;9417;16.484;102.872;2022-09-13T02:20:12;7.40;;;6.18;;
18574;SDS011;9417;16.484;102.872;2022-09-13T02:22:25;9.23;;;6.38;;
18574;SDS011;9417;16.484;102.872;2022-09-13T02:24:37;7.57;;;5.63;;
18574;SDS011;9417;16.484;102.872;2022-09-13T02:26:45;6.40;;;5.47;;
18574;SDS011;9417;16.484;102.872;2022-09-13T02:28:55;7.07;;;5.55;;
18574;SDS011;9417;16.484;102.872;2022-09-13T02:31:06;8.65;;;6.65;;
18574;SDS011;9417;16.484;102.872;2022-09-13T02:33:17;9.40;;;6.50;;
18574;SDS011;9417;16.484;102.872;2022-09-13T02:35:30;7.15;;;5.53;;
18574;SDS011;9417;16.484;102.872;2022-09-13T02:37:40;7.25;;;5.60;;
18574;SDS011;9417;16.484;102.872;2022-09-13T02:39:51;6.72;;;5.15;;
18574;SDS011;9417;16.484;102.872;2022-09-13T02:42:03;8.85;;;5.55;;
18574;SDS011;9417;16.484;102.872;2022-09-13T02:44:17;7.90;;;5.20;;
18574;SDS011;9417;16.484;102.872;2022-09-13T02:46:33;5.93;;;5.30;;
18574;SDS011;9417;16.484;102.872;2022-09-13T02:48:55;6.30;;;5.10;;
18574;SDS011;9417;16.484;102.872;2022-09-13T02:51:05;6.95;;;5.50;;
18574;SDS011;9417;16.484;102.872;2022-09-13T02:53:20;6.57;;;5.07;;
18574;SDS011;9417;16.484;102.872;2022-09-13T02:55:36;7.63;;;5.68;;
18574;SDS011;9417;16.484;102.872;2022-09-13T02:57:50;8.02;;;5.40;;
18574;SDS011;9417;16.484;102.872;2022-09-13T03:00:05;5.40;;;4.70;;
18574;SDS011;9417;16.484;102.872;2022-09-13T03:02:14;5.75;;;5.07;;
18574;SDS011;9417;16.484;102.872;2022-09-13T03:04:26;6.05;;;4.63;;
18574;SDS011;9417;16.484;102.872;2022-09-13T03:06:33;5.15;;;4.65;;
18574;SDS011;9417;16.484;102.872;2022-09-13T03:08:41;5.10;;;4.55;;
18574;SDS011;9417;16.484;102.872;2022-09-13T03:10:50;6.57;;;4.18;;
18574;SDS011;9417;16.484;102.872;2022-09-13T03:13:15;4.78;;;4.28;;
18574;SDS011;9417;16.484;102.872;2022-09-13T03:15:50;4.38;;;3.65;;
18574;SDS011;9417;16.484;102.872;2022-09-13T03:18:06;4.68;;;3.88;;
18574;SDS011;9417;16.484;102.872;2022-09-13T03:20:34;5.82;;;3.97;;
18574;SDS011;9417;16.484;102.872;2022-09-13T03:25:32;4.97;;;4.20;;
18574;SDS011;9417;16.484;102.872;2022-09-13T03:28:04;5.55;;;3.58;;
18574;SDS011;9417;16.484;102.872;2022-09-13T03:30:19;6.18;;;4.38;;
18574;SDS011;9417;16.484;102.872;2022-09-13T03:32:27;4.28;;;3.60;;
18574;SDS011;9417;16.484;102.872;2022-09-13T03:34:42;4.53;;;3.90;;
18574;SDS011;9417;16.484;102.872;2022-09-13T03:36:58;4.20;;;3.80;;
18574;SDS011;9417;16.484;102.872;2022-09-13T03:39:11;5.03;;;3.50;;
18574;SDS011;9417;16.484;102.872;2022-09-13T03:41:26;4.55;;;3.58;;
18574;SDS011;9417;16.484;102.872;2022-09-13T03:43:37;5.20;;;4.13;;
18574;SDS011;9417;16.484;102.872;2022-09-13T03:45:49;4.95;;;3.38;;
18574;SDS011;9417;16.484;102.872;2022-09-13T03:50:08;4.13;;;3.53;;
18574;SDS011;9417;16.484;102.872;2022-09-13T03:52:21;4.25;;;3.45;;
18574;SDS011;9417;16.484;102.872;2022-09-13T03:54:29;4.72;;;3.80;;
18574;SDS011;9417;16.484;102.872;2022-09-13T03:56:37;7.35;;;4.07;;
18574;SDS011;9417;16.484;102.872;2022-09-13T03:58:44;6.72;;;4.25;;
18574;SDS011;9417;16.484;102.872;2022-09-13T04:00:51;4.75;;;3.50;;
18574;SDS011;9417;16.484;102.872;2022-09-13T04:02:58;5.53;;;3.70;;
18574;SDS011;9417;16.484;102.872;2022-09-13T04:05:05;4.05;;;3.35;;
18574;SDS011;9417;16.484;102.872;2022-09-13T04:07:13;4.15;;;3.45;;
18574;SDS011;9417;16.484;102.872;2022-09-13T04:09:22;4.68;;;3.75;;
18574;SDS011;9417;16.484;102.872;2022-09-13T04:11:29;4.35;;;3.60;;
18574;SDS011;9417;16.484;102.872;2022-09-13T04:13:37;4.65;;;3.20;;
18574;SDS011;9417;16.484;102.872;2022-09-13T04:15:43;4.07;;;3.35;;
18574;SDS011;9417;16.484;102.872;2022-09-13T04:17:51;5.10;;;3.78;;
18574;SDS011;9417;16.484;102.872;2022-09-13T04:19:58;3.22;;;2.92;;
18574;SDS011;9417;16.484;102.872;2022-09-13T04:22:05;3.85;;;3.45;;
18574;SDS011;9417;16.484;102.872;2022-09-13T04:24:12;4.75;;;3.70;;
18574;SDS011;9417;16.484;102.872;2022-09-13T04:26:21;4.03;;;3.08;;
18574;SDS011;9417;16.484;102.872;2022-09-13T04:28:28;6.22;;;3.30;;
18574;SDS011;9417;16.484;102.872;2022-09-13T04:30:35;4.53;;;3.38;;
18574;SDS011;9417;16.484;102.872;2022-09-13T04:32:44;5.72;;;3.17;;
18574;SDS011;9417;16.484;102.872;2022-09-13T04:34:51;5.55;;;3.55;;
18574;SDS011;9417;16.484;102.872;2022-09-13T04:36:58;5.10;;;3.30;;
18574;SDS011;9417;16.484;102.872;2022-09-13T04:39:05;4.32;;;3.65;;
18574;SDS011;9417;16.484;102.872;2022-09-13T04:41:12;3.85;;;3.25;;
18574;SDS011;9417;16.484;102.872;2022-09-13T04:43:21;3.92;;;3.33;;
18574;SDS011;9417;16.484;102.872;2022-09-13T04:45:29;3.45;;;2.90;;
18574;SDS011;9417;16.484;102.872;2022-09-13T04:47:36;4.30;;;2.95;;
18574;SDS011;9417;16.484;102.872;2022-09-13T04:49:43;5.25;;;3.08;;
18574;SDS011;9417;16.484;102.872;2022-09-13T04:51:50;4.03;;;3.05;;
18574;SDS011;9417;16.484;102.872;2022-09-13T04:53:58;3.40;;;2.78;;
18574;SDS011;9417;16.484;102.872;2022-09-13T04:56:05;3.05;;;2.70;;
18574;SDS011;9417;16.484;102.872;2022-09-13T04:58:13;3.20;;;2.88;;
18574;SDS011;9417;16.484;102.872;2022-09-13T05:00:22;3.47;;;3.03;;
18574;SDS011;9417;16.484;102.872;2022-09-13T05:02:29;3.22;;;2.55;;
18574;SDS011;9417;16.484;102.872;2022-09-13T05:04:36;3.03;;;2.50;;
18574;SDS011;9417;16.484;102.872;2022-09-13T05:06:44;4.72;;;2.85;;
18574;SDS011;9417;16.484;102.872;2022-09-13T05:08:51;4.95;;;2.78;;
18574;SDS011;9417;16.484;102.872;2022-09-13T05:10:59;4.20;;;2.50;;
18574;SDS011;9417;16.484;102.872;2022-09-13T05:13:05;5.60;;;3.17;;
18574;SDS011;9417;16.484;102.872;2022-09-13T05:15:13;3.42;;;2.67;;
18574;SDS011;9417;16.484;102.872;2022-09-13T05:17:22;3.08;;;2.55;;
18574;SDS011;9417;16.484;102.872;2022-09-13T05:19:30;3.20;;;2.00;;
18574;SDS011;9417;16.484;102.872;2022-09-13T05:21:37;3.03;;;2.65;;
18574;SDS011;9417;16.484;102.872;2022-09-13T05:23:44;3.30;;;2.60;;
18574;SDS011;9417;16.484;102.872;2022-09-13T05:25:54;2.33;;;2.00;;
18574;SDS011;9417;16.484;102.872;2022-09-13T05:28:01;4.00;;;2.75;;
18574;SDS011;9417;16.484;102.872;2022-09-13T05:30:09;3.42;;;2.67;;
18574;SDS011;9417;16.484;102.872;2022-09-13T05:32:17;3.60;;;2.65;;
18574;SDS011;9417;16.484;102.872;2022-09-13T05:34:28;3.17;;;1.98;;
18574;SDS011;9417;16.484;102.872;2022-09-13T05:36:35;3.20;;;2.10;;
18574;SDS011;9417;16.484;102.872;2022-09-13T05:38:42;2.80;;;2.30;;
18574;SDS011;9417;16.484;102.872;2022-09-13T05:40:52;2.28;;;1.90;;
18574;SDS011;9417;16.484;102.872;2022-09-13T05:43:00;2.65;;;2.10;;
18574;SDS011;9417;16.484;102.872;2022-09-13T05:45:08;2.10;;;1.80;;
18574;SDS011;9417;16.484;102.872;2022-09-13T05:47:15;2.85;;;1.92;;
18574;SDS011;9417;16.484;102.872;2022-09-13T05:49:22;2.22;;;1.85;;
18574;SDS011;9417;16.484;102.872;2022-09-13T05:51:31;3.05;;;2.10;;
18574;SDS011;9417;16.484;102.872;2022-09-13T05:53:39;2.40;;;1.90;;
18574;SDS011;9417;16.484;102.872;2022-09-13T05:55:47;2.65;;;2.25;;
18574;SDS011;9417;16.484;102.872;2022-09-13T05:57:53;2.03;;;1.63;;
18574;SDS011;9417;16.484;102.872;2022-09-13T06:00:01;3.75;;;1.83;;
18574;SDS011;9417;16.484;102.872;2022-09-13T06:02:13;2.72;;;1.85;;
18574;SDS011;9417;16.484;102.872;2022-09-13T06:04:20;3.05;;;1.83;;
18574;SDS011;9417;16.484;102.872;2022-09-13T06:06:27;2.13;;;1.77;;
18574;SDS011;9417;16.484;102.872;2022-09-13T06:08:36;2.20;;;1.70;;
18574;SDS011;9417;16.484;102.872;2022-09-13T06:10:43;2.65;;;1.80;;
18574;SDS011;9417;16.484;102.872;2022-09-13T06:12:59;2.38;;;1.55;;
18574;SDS011;9417;16.484;102.872;2022-09-13T06:15:07;1.90;;;1.63;;
18574;SDS011;9417;16.484;102.872;2022-09-13T06:17:14;5.25;;;1.92;;
18574;SDS011;9417;16.484;102.872;2022-09-13T06:19:21;2.65;;;1.83;;
18574;SDS011;9417;16.484;102.872;2022-09-13T06:21:28;1.63;;;1.52;;
18574;SDS011;9417;16.484;102.872;2022-09-13T06:23:37;2.22;;;1.60;;
18574;SDS011;9417;16.484;102.872;2022-09-13T06:25:44;1.58;;;1.30;;
18574;SDS011;9417;16.484;102.872;2022-09-13T06:27:51;3.08;;;1.35;;
18574;SDS011;9417;16.484;102.872;2022-09-13T06:29:59;1.63;;;1.52;;
18574;SDS011;9417;16.484;102.872;2022-09-13T06:32:05;2.58;;;1.30;;
18574;SDS011;9417;16.484;102.872;2022-09-13T06:34:12;1.58;;;1.40;;
18574;SDS011;9417;16.484;102.872;2022-09-13T06:36:20;1.73;;;1.42;;
18574;SDS011;9417;16.484;102.872;2022-09-13T06:38:27;1.58;;;1.17;;
18574;SDS011;9417;16.484;102.872;2022-09-13T06:40:36;2.33;;;1.60;;
18574;SDS011;9417;16.484;102.872;2022-09-13T06:42:43;2.15;;;1.35;;
18574;SDS011;9417;16.484;102.872;2022-09-13T06:44:49;2.42;;;1.42;;
18574;SDS011;9417;16.484;102.872;2022-09-13T06:46:57;1.73;;;1.40;;
18574;SDS011;9417;16.484;102.872;2022-09-13T06:49:04;1.90;;;1.52;;
18574;SDS011;9417;16.484;102.872;2022-09-13T06:51:12;1.65;;;1.48;;
18574;SDS011;9417;16.484;102.872;2022-09-13T06:53:20;2.72;;;1.70;;
18574;SDS011;9417;16.484;102.872;2022-09-13T06:55:27;2.10;;;1.45;;
18574;SDS011;9417;16.484;102.872;2022-09-13T06:57:36;1.52;;;1.23;;
18574;SDS011;9417;16.484;102.872;2022-09-13T06:59:43;1.55;;;1.38;;
18574;SDS011;9417;16.484;102.872;2022-09-13T07:01:50;1.95;;;1.75;;
18574;SDS011;9417;16.484;102.872;2022-09-13T07:03:57;1.90;;;1.70;;
18574;SDS011;9417;16.484;102.872;2022-09-13T07:06:06;2.25;;;1.58;;
18574;SDS011;9417;16.484;102.872;2022-09-13T07:08:14;2.00;;;1.42;;
18574;SDS011;9417;16.484;102.872;2022-09-13T07:10:21;2.08;;;1.50;;
18574;SDS011;9417;16.484;102.872;2022-09-13T07:12:29;1.98;;;1.55;;
18574;SDS011;9417;16.484;102.872;2022-09-13T07:14:37;3.22;;;1.85;;
18574;SDS011;9417;16.484;102.872;2022-09-13T07:16:44;2.20;;;1.70;;
18574;SDS011;9417;16.484;102.872;2022-09-13T07:18:51;1.70;;;1.60;;
18574;SDS011;9417;16.484;102.872;2022-09-13T07:21:00;3.55;;;1.95;;
18574;SDS011;9417;16.484;102.872;2022-09-13T07:23:08;2.85;;;1.95;;
18574;SDS011;9417;16.484;102.872;2022-09-13T07:25:16;2.72;;;2.00;;
18574;SDS011;9417;16.484;102.872;2022-09-13T07:27:23;2.88;;;1.80;;
18574;SDS011;9417;16.484;102.872;2022-09-13T07:29:30;3.50;;;2.15;;
18574;SDS011;9417;16.484;102.872;2022-09-13T07:31:39;2.00;;;1.67;;
18574;SDS011;9417;16.484;102.872;2022-09-13T07:33:47;2.90;;;1.92;;
18574;SDS011;9417;16.484;102.872;2022-09-13T07:35:58;2.63;;;1.67;;
18574;SDS011;9417;16.484;102.872;2022-09-13T07:38:08;2.30;;;1.60;;
18574;SDS011;9417;16.484;102.872;2022-09-13T07:40:16;1.88;;;1.65;;
18574;SDS011;9417;16.484;102.872;2022-09-13T07:42:23;4.20;;;1.80;;
18574;SDS011;9417;16.484;102.872;2022-09-13T07:44:30;3.13;;;1.80;;
18574;SDS011;9417;16.484;102.872;2022-09-13T07:46:39;2.30;;;1.95;;
18574;SDS011;9417;16.484;102.872;2022-09-13T07:48:47;1.67;;;1.50;;
18574;SDS011;9417;16.484;102.872;2022-09-13T07:50:59;2.28;;;1.55;;
18574;SDS011;9417;16.484;102.872;2022-09-13T07:53:07;1.63;;;1.52;;
18574;SDS011;9417;16.484;102.872;2022-09-13T07:55:15;1.67;;;1.40;;
18574;SDS011;9417;16.484;102.872;2022-09-13T07:57:22;2.05;;;1.42;;
18574;SDS011;9417;16.484;102.872;2022-09-13T07:59:29;2.17;;;1.40;;
18574;SDS011;9417;16.484;102.872;2022-09-13T08:01:36;2.10;;;1.50;;
18574;SDS011;9417;16.484;102.872;2022-09-13T08:03:49;2.90;;;1.55;;
18574;SDS011;9417;16.484;102.872;2022-09-13T08:05:57;13.25;;;1.90;;
18574;SDS011;9417;16.484;102.872;2022-09-13T08:08:04;2.85;;;1.67;;
18574;SDS011;9417;16.484;102.872;2022-09-13T08:10:11;2.60;;;1.70;;
18574;SDS011;9417;16.484;102.872;2022-09-13T08:12:18;2.75;;;1.70;;
18574;SDS011;9417;16.484;102.872;2022-09-13T08:14:25;2.80;;;2.25;;
18574;SDS011;9417;16.484;102.872;2022-09-13T08:16:32;2.85;;;1.90;;
18574;SDS011;9417;16.484;102.872;2022-09-13T08:18:44;2.17;;;1.70;;
18574;SDS011;9417;16.484;102.872;2022-09-13T08:20:54;1.98;;;1.55;;
18574;SDS011;9417;16.484;102.872;2022-09-13T08:23:02;2.15;;;1.75;;
18574;SDS011;9417;16.484;102.872;2022-09-13T08:25:10;2.47;;;1.67;;
18574;SDS011;9417;16.484;102.872;2022-09-13T08:27:16;2.03;;;1.70;;
18574;SDS011;9417;16.484;102.872;2022-09-13T08:29:23;4.57;;;2.00;;
18574;SDS011;9417;16.484;102.872;2022-09-13T08:31:30;3.20;;;2.05;;
18574;SDS011;9417;16.484;102.872;2022-09-13T08:33:38;2.63;;;1.83;;
18574;SDS011;9417;16.484;102.872;2022-09-13T08:35:52;2.50;;;2.10;;
18574;SDS011;9417;16.484;102.872;2022-09-13T08:38:00;2.20;;;1.90;;
18574;SDS011;9417;16.484;102.872;2022-09-13T08:40:08;2.10;;;1.88;;
18574;SDS011;9417;16.484;102.872;2022-09-13T08:42:18;2.08;;;1.80;;
18574;SDS011;9417;16.484;102.872;2022-09-13T08:44:31;1.55;;;1.35;;
18574;SDS011;9417;16.484;102.872;2022-09-13T08:46:40;2.20;;;1.55;;
18574;SDS011;9417;16.484;102.872;2022-09-13T08:48:50;2.15;;;1.88;;
18574;SDS011;9417;16.484;102.872;2022-09-13T08:51:02;2.15;;;1.63;;
18574;SDS011;9417;16.484;102.872;2022-09-13T08:53:15;2.28;;;1.70;;
18574;SDS011;9417;16.484;102.872;2022-09-13T08:55:27;2.35;;;1.52;;
18574;SDS011;9417;16.484;102.872;2022-09-13T08:57:49;2.15;;;1.83;;
18574;SDS011;9417;16.484;102.872;2022-09-13T09:00:05;3.55;;;1.60;;
18574;SDS011;9417;16.484;102.872;2022-09-13T09:02:24;2.20;;;1.70;;
18574;SDS011;9417;16.484;102.872;2022-09-13T09:04:47;2.00;;;1.77;;
18574;SDS011;9417;16.484;102.872;2022-09-13T09:07:03;2.15;;;1.88;;
18574;SDS011;9417;16.484;102.872;2022-09-13T09:09:14;2.60;;;2.00;;
18574;SDS011;9417;16.484;102.872;2022-09-13T09:11:26;2.35;;;2.05;;
18574;SDS011;9417;16.484;102.872;2022-09-13T09:13:40;1.95;;;1.75;;
18574;SDS011;9417;16.484;102.872;2022-09-13T09:15:55;3.65;;;2.15;;
18574;SDS011;9417;16.484;102.872;2022-09-13T09:20:23;6.25;;;2.05;;
18574;SDS011;9417;16.484;102.872;2022-09-13T09:22:39;3.78;;;2.00;;
18574;SDS011;9417;16.484;102.872;2022-09-13T09:24:49;2.25;;;2.03;;
18574;SDS011;9417;16.484;102.872;2022-09-13T09:26:59;2.22;;;1.90;;
18574;SDS011;9417;16.484;102.872;2022-09-13T09:29:16;3.53;;;2.30;;
18574;SDS011;9417;16.484;102.872;2022-09-13T09:31:33;2.30;;;2.05;;
18574;SDS011;9417;16.484;102.872;2022-09-13T09:33:48;2.78;;;2.33;;
18574;SDS011;9417;16.484;102.872;2022-09-13T09:36:09;3.85;;;2.20;;
18574;SDS011;9417;16.484;102.872;2022-09-13T09:40:51;5.10;;;2.22;;
18574;SDS011;9417;16.484;102.872;2022-09-13T09:42:58;3.40;;;2.30;;
18574;SDS011;9417;16.484;102.872;2022-09-13T09:45:15;2.33;;;2.10;;
18574;SDS011;9417;16.484;102.872;2022-09-13T09:47:30;2.58;;;2.00;;
18574;SDS011;9417;16.484;102.872;2022-09-13T09:49:45;2.60;;;2.17;;
18574;SDS011;9417;16.484;102.872;2022-09-13T09:52:15;3.33;;;2.60;;
18574;SDS011;9417;16.484;102.872;2022-09-13T09:54:27;2.90;;;2.28;;
18574;SDS011;9417;16.484;102.872;2022-09-13T09:56:35;2.90;;;2.17;;
18574;SDS011;9417;16.484;102.872;2022-09-13T09:58:56;3.17;;;2.15;;
18574;SDS011;9417;16.484;102.872;2022-09-13T10:01:03;5.13;;;2.38;;
18574;SDS011;9417;16.484;102.872;2022-09-13T10:03:16;3.10;;;2.28;;
18574;SDS011;9417;16.484;102.872;2022-09-13T10:05:24;3.28;;;2.50;;
18574;SDS011;9417;16.484;102.872;2022-09-13T10:07:32;3.55;;;2.50;;
18574;SDS011;9417;16.484;102.872;2022-09-13T10:09:42;3.90;;;2.40;;
18574;SDS011;9417;16.484;102.872;2022-09-13T10:12:02;3.65;;;2.55;;
18574;SDS011;9417;16.484;102.872;2022-09-13T10:14:27;3.65;;;2.40;;
18574;SDS011;9417;16.484;102.872;2022-09-13T10:16:39;4.07;;;2.53;;
18574;SDS011;9417;16.484;102.872;2022-09-13T10:18:46;4.78;;;2.65;;
18574;SDS011;9417;16.484;102.872;2022-09-13T10:21:00;4.38;;;2.75;;
18574;SDS011;9417;16.484;102.872;2022-09-13T10:23:11;2.63;;;2.20;;
18574;SDS011;9417;16.484;102.872;2022-09-13T10:25:26;4.00;;;2.60;;
18574;SDS011;9417;16.484;102.872;2022-09-13T10:27:34;3.97;;;2.50;;
18574;SDS011;9417;16.484;102.872;2022-09-13T10:29:46;3.42;;;2.40;;
18574;SDS011;9417;16.484;102.872;2022-09-13T10:31:55;4.07;;;2.50;;
18574;SDS011;9417;16.484;102.872;2022-09-13T10:34:06;2.72;;;2.35;;
18574;SDS011;9417;16.484;102.872;2022-09-13T10:36:19;4.88;;;2.28;;
18574;SDS011;9417;16.484;102.872;2022-09-13T10:38:50;3.08;;;1.92;;
18574;SDS011;9417;16.484;102.872;2022-09-13T10:41:05;4.68;;;2.47;;
18574;SDS011;9417;16.484;102.872;2022-09-13T10:43:14;5.00;;;2.70;;
18574;SDS011;9417;16.484;102.872;2022-09-13T10:45:24;4.97;;;2.47;;
18574;SDS011;9417;16.484;102.872;2022-09-13T10:47:32;4.25;;;2.63;;
18574;SDS011;9417;16.484;102.872;2022-09-13T10:49:45;3.97;;;2.72;;
18574;SDS011;9417;16.484;102.872;2022-09-13T10:51:58;4.25;;;2.92;;
18574;SDS011;9417;16.484;102.872;2022-09-13T10:54:09;4.20;;;3.33;;
18574;SDS011;9417;16.484;102.872;2022-09-13T10:56:26;4.95;;;2.85;;
18574;SDS011;9417;16.484;102.872;2022-09-13T10:58:33;5.53;;;4.50;;
18574;SDS011;9417;16.484;102.872;2022-09-13T11:00:43;5.88;;;4.28;;
18574;SDS011;9417;16.484;102.872;2022-09-13T11:03:25;6.60;;;4.50;;
18574;SDS011;9417;16.484;102.872;2022-09-13T11:05:44;6.70;;;4.40;;
18574;SDS011;9417;16.484;102.872;2022-09-13T11:08:08;4.47;;;4.00;;
18574;SDS011;9417;16.484;102.872;2022-09-13T11:10:26;7.20;;;5.00;;
18574;SDS011;9417;16.484;102.872;2022-09-13T11:12:40;6.28;;;4.82;;
18574;SDS011;9417;16.484;102.872;2022-09-13T11:14:55;6.13;;;5.07;;
18574;SDS011;9417;16.484;102.872;2022-09-13T11:17:14;9.75;;;5.10;;
18574;SDS011;9417;16.484;102.872;2022-09-13T11:22:21;8.27;;;4.93;;
18574;SDS011;9417;16.484;102.872;2022-09-13T11:24:42;6.78;;;4.88;;
18574;SDS011;9417;16.484;102.872;2022-09-13T11:27:01;8.45;;;5.95;;
18574;SDS011;9417;16.484;102.872;2022-09-13T11:29:19;9.25;;;6.28;;
18574;SDS011;9417;16.484;102.872;2022-09-13T11:31:41;7.18;;;5.60;;
18574;SDS011;9417;16.484;102.872;2022-09-13T11:33:57;8.65;;;5.25;;
18574;SDS011;9417;16.484;102.872;2022-09-13T11:36:26;9.02;;;5.97;;
18574;SDS011;9417;16.484;102.872;2022-09-13T11:38:45;7.88;;;5.40;;
18574;SDS011;9417;16.484;102.872;2022-09-13T11:41:07;7.63;;;5.15;;
18574;SDS011;9417;16.484;102.872;2022-09-13T11:43:28;6.80;;;4.73;;
18574;SDS011;9417;16.484;102.872;2022-09-13T11:45:49;8.60;;;5.53;;
18574;SDS011;9417;16.484;102.872;2022-09-13T11:50:41;8.18;;;4.97;;
18574;SDS011;9417;16.484;102.872;2022-09-13T11:53:04;6.15;;;4.78;;
18574;SDS011;9417;16.484;102.872;2022-09-13T11:55:22;7.28;;;4.80;;
18574;SDS011;9417;16.484;102.872;2022-09-13T11:57:34;6.57;;;5.00;;
18574;SDS011;9417;16.484;102.872;2022-09-13T11:59:43;9.38;;;6.13;;
18574;SDS011;9417;16.484;102.872;2022-09-13T12:01:58;8.68;;;6.00;;
18574;SDS011;9417;16.484;102.872;2022-09-13T12:04:09;8.05;;;5.65;;
18574;SDS011;9417;16.484;102.872;2022-09-13T12:06:21;7.82;;;5.07;;
18574;SDS011;9417;16.484;102.872;2022-09-13T12:08:31;7.25;;;5.18;;
18574;SDS011;9417;16.484;102.872;2022-09-13T12:10:42;6.28;;;4.80;;
18574;SDS011;9417;16.484;102.872;2022-09-13T12:15:02;5.85;;;4.28;;
18574;SDS011;9417;16.484;102.872;2022-09-13T12:19:26;6.68;;;4.65;;
18574;SDS011;9417;16.484;102.872;2022-09-13T12:21:39;7.40;;;4.75;;
18574;SDS011;9417;16.484;102.872;2022-09-13T12:23:49;7.80;;;4.90;;
18574;SDS011;9417;16.484;102.872;2022-09-13T12:26:06;7.53;;;5.10;;
18574;SDS011;9417;16.484;102.872;2022-09-13T12:28:20;5.97;;;4.82;;
18574;SDS011;9417;16.484;102.872;2022-09-13T12:30:35;7.07;;;5.53;;
18574;SDS011;9417;16.484;102.872;2022-09-13T12:32:50;7.88;;;5.20;;
18574;SDS011;9417;16.484;102.872;2022-09-13T12:35:01;7.40;;;4.90;;
18574;SDS011;9417;16.484;102.872;2022-09-13T12:37:18;6.57;;;5.07;;
18574;SDS011;9417;16.484;102.872;2022-09-13T12:47:51;8.52;;;5.22;;
18574;SDS011;9417;16.484;102.872;2022-09-13T12:50:24;7.70;;;5.45;;
18574;SDS011;9417;16.484;102.872;2022-09-13T12:52:54;8.07;;;5.38;;
18574;SDS011;9417;16.484;102.872;2022-09-13T12:57:59;7.38;;;4.93;;
18574;SDS011;9417;16.484;102.872;2022-09-13T13:00:21;4.97;;;4.47;;
18574;SDS011;9417;16.484;102.872;2022-09-13T13:02:31;7.93;;;4.47;;
18574;SDS011;9417;16.484;102.872;2022-09-13T13:04:44;7.20;;;4.72;;
18574;SDS011;9417;16.484;102.872;2022-09-13T13:06:58;6.30;;;4.70;;
18574;SDS011;9417;16.484;102.872;2022-09-13T13:09:18;8.48;;;4.93;;
18574;SDS011;9417;16.484;102.872;2022-09-13T13:11:40;7.38;;;5.00;;
18574;SDS011;9417;16.484;102.872;2022-09-13T13:13:52;8.05;;;5.47;;
18574;SDS011;9417;16.484;102.872;2022-09-13T13:16:20;8.93;;;5.82;;
18574;SDS011;9417;16.484;102.872;2022-09-13T13:18:31;6.82;;;5.28;;
18574;SDS011;9417;16.484;102.872;2022-09-13T13:23:32;9.68;;;6.25;;
18574;SDS011;9417;16.484;102.872;2022-09-13T13:25:52;8.98;;;6.20;;
18574;SDS011;9417;16.484;102.872;2022-09-13T13:30:51;8.98;;;6.80;;
18574;SDS011;9417;16.484;102.872;2022-09-13T13:33:09;10.25;;;6.30;;
18574;SDS011;9417;16.484;102.872;2022-09-13T13:35:27;10.90;;;6.22;;
18574;SDS011;9417;16.484;102.872;2022-09-13T13:37:38;8.70;;;6.15;;
18574;SDS011;9417;16.484;102.872;2022-09-13T13:39:46;9.77;;;5.90;;
18574;SDS011;9417;16.484;102.872;2022-09-13T13:41:54;8.20;;;5.90;;